QFA296 VTBS-YSSY
Flight info
| Callsign | QFA296 |
|---|---|
| Flight time | N/A |
| Altitude | 37000 |
| Route | BUT1G/20L BUT M904 ENREP N875 PNK G464 PKN A344 IKAPI/N0468F390 A344 MUBOT A587 AS A576 APOMA Y52 VELGI Y105 TARAL Y59 RIVET |
| Aircraft | A333/H-SDE3GHIJ2J3J5M1RVWXY/LB2D1 |
Departure
| Time | 2026-05-01 11:11 |
|---|---|
| Airport | Suvarnabhumi Airport (VTBS) |
Arrival
| Time | N/A |
|---|---|
| Airport | Sydney Kingsford Smith International Airport (YSSY) |
| Time | Latitude | Longitude | Altitude | Speed | Heading |
|---|---|---|---|---|---|
| 2026-05-01 11:11 | 13.66222 | 100.72934 | 746 ft | 179 kts | 188° |
| 2026-05-01 11:11 | 13.65005 | 100.72729 | 1640 ft | 179 kts | 189° |
| 2026-05-01 11:11 | 13.63708 | 100.72472 | 1969 ft | 199 kts | 190° |
| 2026-05-01 11:12 | 13.62294 | 100.72149 | 2116 ft | 217 kts | 192° |
| 2026-05-01 11:12 | 13.60768 | 100.71771 | 2293 ft | 234 kts | 192° |
| 2026-05-01 11:12 | 13.59137 | 100.71354 | 2494 ft | 249 kts | 193° |
| 2026-05-01 11:12 | 13.57466 | 100.70918 | 2944 ft | 252 kts | 193° |
| 2026-05-01 11:13 | 13.55730 | 100.70463 | 3388 ft | 256 kts | 193° |
| 2026-05-01 11:13 | 13.54015 | 100.70012 | 3887 ft | 259 kts | 193° |
| 2026-05-01 11:13 | 13.52246 | 100.69624 | 4378 ft | 260 kts | 187° |
| 2026-05-01 11:13 | 13.50441 | 100.69441 | 4914 ft | 261 kts | 184° |
| 2026-05-01 11:14 | 13.48608 | 100.69312 | 5397 ft | 265 kts | 184° |
| 2026-05-01 11:14 | 13.46764 | 100.69190 | 5916 ft | 267 kts | 184° |
| 2026-05-01 11:14 | 13.44909 | 100.69066 | 6427 ft | 268 kts | 184° |
| 2026-05-01 11:14 | 13.43037 | 100.68940 | 6919 ft | 270 kts | 184° |
| 2026-05-01 11:15 | 13.41150 | 100.68811 | 7402 ft | 273 kts | 184° |
| 2026-05-01 11:15 | 13.39243 | 100.68680 | 7925 ft | 275 kts | 184° |
| 2026-05-01 11:15 | 13.37975 | 100.68593 | 8266 ft | 276 kts | 184° |
| 2026-05-01 11:15 | 13.36046 | 100.68460 | 8789 ft | 279 kts | 184° |
| 2026-05-01 11:16 | 13.34104 | 100.68327 | 9329 ft | 281 kts | 184° |
| 2026-05-01 11:16 | 13.32141 | 100.68192 | 9788 ft | 284 kts | 184° |
| 2026-05-01 11:16 | 13.30161 | 100.68076 | 9955 ft | 286 kts | 180° |
| 2026-05-01 11:16 | 13.28196 | 100.68385 | 10083 ft | 289 kts | 160° |
| 2026-05-01 11:17 | 13.26364 | 100.69348 | 10271 ft | 304 kts | 149° |
| 2026-05-01 11:17 | 13.24543 | 100.70547 | 10454 ft | 318 kts | 148° |
| 2026-05-01 11:17 | 13.22684 | 100.71809 | 10638 ft | 330 kts | 148° |
| 2026-05-01 11:17 | 13.20731 | 100.73130 | 10806 ft | 343 kts | 148° |
| 2026-05-01 11:18 | 13.18710 | 100.74488 | 11054 ft | 351 kts | 148° |
| 2026-05-01 11:18 | 13.16646 | 100.75869 | 11408 ft | 356 kts | 148° |
| 2026-05-01 11:18 | 13.14560 | 100.77261 | 11816 ft | 358 kts | 148° |
| 2026-05-01 11:18 | 13.12465 | 100.78658 | 12246 ft | 361 kts | 148° |
| 2026-05-01 11:19 | 13.10353 | 100.80065 | 12662 ft | 363 kts | 148° |
| 2026-05-01 11:19 | 13.08194 | 100.81418 | 13072 ft | 365 kts | 153° |
| 2026-05-01 11:19 | 13.05899 | 100.82543 | 13465 ft | 367 kts | 157° |
| 2026-05-01 11:19 | 13.03557 | 100.83596 | 13836 ft | 369 kts | 157° |
| 2026-05-01 11:20 | 13.01189 | 100.84648 | 14173 ft | 371 kts | 157° |
| 2026-05-01 11:20 | 12.98811 | 100.85704 | 14516 ft | 374 kts | 157° |
| 2026-05-01 11:20 | 12.96446 | 100.86757 | 14859 ft | 376 kts | 157° |
| 2026-05-01 11:20 | 12.94037 | 100.87831 | 15193 ft | 378 kts | 157° |
| 2026-05-01 11:21 | 12.91618 | 100.88910 | 15538 ft | 380 kts | 157° |
| 2026-05-01 11:21 | 12.89186 | 100.89995 | 15894 ft | 381 kts | 157° |
| 2026-05-01 11:21 | 12.86749 | 100.91084 | 16225 ft | 384 kts | 157° |
| 2026-05-01 11:21 | 12.84291 | 100.92180 | 16532 ft | 386 kts | 157° |
| 2026-05-01 11:22 | 12.81821 | 100.93282 | 16842 ft | 388 kts | 157° |
| 2026-05-01 11:22 | 12.79340 | 100.94389 | 17227 ft | 388 kts | 157° |
| 2026-05-01 11:22 | 12.76857 | 100.95497 | 17510 ft | 391 kts | 157° |
| 2026-05-01 11:22 | 12.74349 | 100.96615 | 17825 ft | 393 kts | 157° |
| 2026-05-01 11:23 | 12.71838 | 100.97735 | 18137 ft | 395 kts | 157° |
| 2026-05-01 11:23 | 12.69311 | 100.98861 | 18382 ft | 397 kts | 157° |
| 2026-05-01 11:23 | 12.66747 | 100.99941 | 18645 ft | 398 kts | 161° |
| 2026-05-01 11:23 | 12.64110 | 101.00846 | 18895 ft | 400 kts | 163° |
| 2026-05-01 11:24 | 12.61433 | 101.01651 | 19138 ft | 402 kts | 165° |
| 2026-05-01 11:24 | 12.58763 | 101.02398 | 19385 ft | 403 kts | 166° |
| 2026-05-01 11:24 | 12.53311 | 101.03886 | 19848 ft | 407 kts | 165° |
| 2026-05-01 11:25 | 12.50572 | 101.04643 | 20095 ft | 409 kts | 165° |
| 2026-05-01 11:25 | 12.45050 | 101.06196 | 20539 ft | 413 kts | 165° |
| 2026-05-01 11:25 | 12.42274 | 101.06985 | 20762 ft | 415 kts | 165° |
| 2026-05-01 11:26 | 12.39484 | 101.07779 | 20990 ft | 417 kts | 165° |
| 2026-05-01 11:26 | 12.33864 | 101.09396 | 21417 ft | 421 kts | 164° |